createdAt,value
2022-08-12T00:00:29.490Z,100053.00
2022-08-12T00:06:04.815Z,100060.88
2022-08-12T00:11:25.917Z,100062.69
2022-08-12T00:16:46.765Z,100055.75
2022-08-12T00:22:09.168Z,100056.66
2022-08-12T00:27:43.579Z,100064.59
2022-08-12T00:33:05.297Z,100064.59
2022-08-12T00:38:27.883Z,100063.75
2022-08-12T00:43:31.221Z,100052.50
2022-08-12T00:48:35.338Z,100053.38
2022-08-12T00:53:40.874Z,100062.13
2022-08-12T00:58:50.956Z,100057.81
2022-08-12T01:04:12.435Z,100066.59
2022-08-12T01:09:34.554Z,100069.22
2022-08-12T01:14:39.151Z,100058.78
2022-08-12T01:19:42.565Z,100061.44
2022-08-12T01:24:57.327Z,100064.03
2022-08-12T01:30:03.007Z,100064.06
2022-08-12T01:35:09.494Z,100059.75
2022-08-12T01:40:33.882Z,100067.56
2022-08-12T01:45:46.439Z,100061.47
2022-08-12T01:51:05.370Z,100068.44
2022-08-12T01:56:12.477Z,100066.72
2022-08-12T02:01:16.576Z,100070.19
2022-08-12T02:06:44.880Z,100073.66
2022-08-12T02:11:58.740Z,100077.13
2022-08-12T02:17:24.073Z,100067.59
2022-08-12T02:22:47.153Z,100078.03
2022-08-12T02:27:54.068Z,100084.13
2022-08-12T02:32:57.500Z,100078.03
2022-08-12T02:38:03.996Z,100070.16
2022-08-12T02:43:15.668Z,100075.31
2022-08-12T02:48:26.361Z,100072.66
2022-08-12T02:53:31.188Z,100070.88
2022-08-12T02:58:41.226Z,100073.38
2022-08-12T03:03:52.945Z,100069.81
2022-08-12T03:09:01.301Z,100057.47
2022-08-12T03:14:12.153Z,100062.50
2022-08-12T03:19:15.683Z,100063.03
2022-08-12T03:24:19.788Z,100063.75
2022-08-12T03:29:30.141Z,100072.22
2022-08-12T03:34:36.783Z,100071.03
2022-08-12T03:39:45.339Z,100072.47
2022-08-12T03:45:15.596Z,100068.34
2022-08-12T03:50:37.054Z,100063.91
2022-08-12T03:55:58.861Z,100067.34
2022-08-12T04:01:03.863Z,100072.94
2022-08-12T04:06:10.235Z,100072.94
2022-08-12T04:11:45.709Z,100071.41
2022-08-12T04:16:52.879Z,100067.06
2022-08-12T04:22:01.155Z,100077.50
2022-08-12T04:27:09.629Z,100085.09
2022-08-12T04:32:15.846Z,100078.38
2022-08-12T04:37:19.307Z,100084.34
2022-08-12T04:42:25.748Z,100090.63
2022-08-12T04:47:30.877Z,100084.91
2022-08-12T04:52:35.050Z,100086.94
2022-08-12T04:57:38.806Z,100081.28
2022-08-12T05:02:44.204Z,100088.09
2022-08-12T05:07:54.312Z,100086.56
2022-08-12T05:13:01.557Z,100090.81
2022-08-12T05:18:19.366Z,100084.00
2022-08-12T05:23:23.613Z,100075.25
2022-08-12T05:28:28.170Z,100089.19
2022-08-12T05:33:37.844Z,100093.44
2022-08-12T05:38:57.411Z,100082.66
2022-08-12T05:44:03.824Z,100089.38
2022-08-12T05:49:09.247Z,100091.88
2022-08-12T05:54:13.106Z,100096.97
2022-08-12T05:59:16.418Z,100093.28
2022-08-12T06:04:21.466Z,100093.41
2022-08-12T06:09:26.771Z,100096.97
2022-08-12T06:14:31.807Z,100096.16
2022-08-12T06:20:26.974Z,100092.97
2022-08-12T06:25:00.593Z,100089.31
2022-08-12T06:30:08.453Z,100090.63
2022-08-12T06:35:25.825Z,100086.75
2022-08-12T06:40:58.433Z,100094.44
2022-08-12T06:46:01.788Z,100074.78
2022-08-12T06:51:08.706Z,100096.69
2022-08-12T06:56:12.728Z,100080.47
2022-08-12T07:01:17.578Z,100088.59
2022-08-12T07:06:22.346Z,100088.03
2022-08-12T07:11:25.605Z,100081.59
2022-08-12T07:16:51.531Z,100077.59
2022-08-12T07:21:59.797Z,100076.38
2022-08-12T07:27:05.826Z,100071.94
2022-08-12T07:32:09.086Z,100074.59
2022-08-12T07:37:14.560Z,100074.47
2022-08-12T07:42:18.994Z,100076.31
2022-08-12T07:47:23.164Z,100073.69
2022-08-12T07:52:27.999Z,100075.31
2022-08-12T07:57:32.699Z,100073.03
2022-08-12T08:02:37.692Z,100066.03
2022-08-12T08:07:42.558Z,100062.53
2022-08-12T08:13:02.650Z,100057.88
2022-08-12T08:18:08.434Z,100047.59
2022-08-12T08:23:15.760Z,100041.31
2022-08-12T08:28:19.187Z,100036.03
2022-08-12T08:34:05.104Z,100039.97
2022-08-12T08:38:57.609Z,100022.09
2022-08-12T08:44:03.223Z,100027.13
2022-08-12T08:49:07.123Z,100023.53
2022-08-12T08:54:12.750Z,100019.13
2022-08-12T08:59:16.128Z,100013.88
2022-08-12T09:05:08.638Z,100003.66
2022-08-12T09:10:02.438Z,100005.50
2022-08-12T09:15:16.914Z,100004.53
2022-08-12T09:20:29.298Z,100003.06
2022-08-12T09:25:35.599Z,100000.13
2022-08-12T09:30:41.173Z,100000.47
2022-08-12T09:35:46.135Z,99995.22
2022-08-12T09:40:55.732Z,99993.16
2022-08-12T09:46:14.287Z,99982.75
2022-08-12T09:51:38.094Z,99975.22
2022-08-12T09:56:59.842Z,99972.88
2022-08-12T10:02:45.342Z,99971.09
2022-08-12T10:07:39.601Z,99966.94
2022-08-12T10:13:07.304Z,99966.34
2022-08-12T10:18:14.009Z,99962.91
2022-08-12T10:23:17.332Z,99954.34
2022-08-12T10:28:39.596Z,99943.72
2022-08-12T10:33:55.549Z,99946.56
2022-08-12T10:40:02.196Z,99955.31
2022-08-12T10:44:31.089Z,99934.03
2022-08-12T10:50:02.314Z,99942.75
2022-08-12T10:55:01.367Z,99933.50
2022-08-12T11:00:34.136Z,99925.34
2022-08-12T11:07:08.936Z,99932.50
2022-08-12T11:10:57.691Z,99918.78
2022-08-12T11:16:19.784Z,99916.59
2022-08-12T11:21:56.104Z,99915.75
2022-08-12T11:26:50.763Z,99914.00
2022-08-12T11:32:02.479Z,99910.06
2022-08-12T11:37:25.756Z,99893.44
2022-08-12T11:42:32.333Z,99894.59
2022-08-12T11:47:40.446Z,99892.03
2022-08-12T11:52:56.286Z,99884.97
2022-08-12T11:58:17.199Z,99883.31
2022-08-12T12:03:25.189Z,99877.84
2022-08-12T12:08:51.572Z,99866.03
2022-08-12T12:14:08.149Z,99851.25
2022-08-12T12:19:19.125Z,99853.59
2022-08-12T12:24:22.651Z,99862.50
2022-08-12T12:30:19.167Z,99858.31
2022-08-12T12:36:05.395Z,99843.22
2022-08-12T12:40:15.498Z,99847.28
2022-08-12T12:45:20.459Z,99835.63
2022-08-12T12:50:35.416Z,99825.34
2022-08-12T12:55:40.279Z,99836.81
2022-08-12T13:00:50.113Z,99837.75
2022-08-12T13:06:00.650Z,99837.03
2022-08-12T13:11:06.092Z,99828.56
2022-08-12T13:16:14.428Z,99826.13
2022-08-12T13:21:33.233Z,99831.69
2022-08-12T13:26:40.789Z,99829.34
2022-08-12T13:32:17.435Z,99815.13
2022-08-12T13:37:09.193Z,99819.19
2022-08-12T13:42:14.510Z,99814.06
2022-08-12T13:47:18.827Z,99806.03
2022-08-12T13:52:25.758Z,99805.28
2022-08-12T13:57:46.888Z,99803.25
2022-08-12T14:02:53.293Z,99804.13
2022-08-12T14:08:01.743Z,99794.41
2022-08-12T14:13:10.463Z,99798.03
2022-08-12T14:18:21.879Z,99803.75
2022-08-12T14:24:04.122Z,99789.13
2022-08-12T14:28:57.757Z,99797.34
2022-08-12T14:34:05.297Z,99783.88
2022-08-12T14:39:09.913Z,99792.81
2022-08-12T14:44:59.776Z,99782.47
2022-08-12T14:50:33.484Z,99793.13
2022-08-12T15:00:47.731Z,99792.72
2022-08-12T15:06:05.451Z,99804.66
2022-08-12T15:11:14.239Z,99794.38
2022-08-12T15:16:18.907Z,99793.69
2022-08-12T15:21:24.789Z,99804.88
2022-08-12T15:26:35.438Z,99794.53
2022-08-12T15:32:01.809Z,99798.66
2022-08-12T15:37:04.451Z,99789.22
2022-08-12T15:42:14.678Z,99792.72
2022-08-12T15:47:19.279Z,99784.47
2022-08-12T15:52:30.853Z,99781.00
2022-08-12T15:57:35.636Z,99791.34
2022-08-12T16:02:47.332Z,99794.47
2022-08-12T16:07:55.555Z,99794.50
2022-08-12T16:13:12.905Z,99789.25
2022-08-12T16:18:19.945Z,99796.00
2022-08-12T16:23:35.835Z,99794.19
2022-08-12T16:28:49.562Z,99796.81
2022-08-12T16:33:58.633Z,99797.84
2022-08-12T16:39:04.294Z,99796.25
2022-08-12T16:44:09.363Z,99800.56
2022-08-12T16:49:14.238Z,99805.22
2022-08-12T16:54:26.479Z,99800.44
2022-08-12T16:59:54.394Z,99796.72
2022-08-12T17:04:59.997Z,99803.59
2022-08-12T17:10:12.065Z,99793.91
2022-08-12T17:15:51.274Z,99810.06
2022-08-12T17:20:46.733Z,99812.50
2022-08-12T17:25:53.461Z,99804.91
2022-08-12T17:31:00.235Z,99800.03
2022-08-12T17:36:05.893Z,99806.50
2022-08-12T17:41:22.490Z,99797.09
2022-08-12T17:46:31.990Z,99798.97
2022-08-12T17:51:50.520Z,99798.28
2022-08-12T17:57:16.017Z,99803.63
2022-08-12T18:02:30.060Z,99807.06
2022-08-12T18:07:35.890Z,99801.72
2022-08-12T18:12:42.753Z,99803.50
2022-08-12T18:18:00.018Z,99806.75
2022-08-12T18:23:04.738Z,99815.47
2022-08-12T18:28:15.453Z,99802.31
2022-08-12T18:33:23.897Z,99811.34
2022-08-12T18:38:28.860Z,99807.19
2022-08-12T18:43:57.221Z,99809.06
2022-08-12T18:49:18.255Z,99815.56
2022-08-12T18:54:25.764Z,99808.25
2022-08-12T19:00:00.710Z,99818.19
2022-08-12T19:04:54.740Z,99816.00
2022-08-12T19:09:59.999Z,99820.88
2022-08-12T19:15:08.777Z,99815.69
2022-08-12T19:20:16.006Z,99814.84
2022-08-12T19:25:59.506Z,99814.09
2022-08-12T19:31:04.670Z,99821.13
2022-08-12T19:36:25.348Z,99815.16
2022-08-12T19:41:42.960Z,99819.06
2022-08-12T19:46:54.601Z,99819.53
2022-08-12T19:51:59.495Z,99823.44
2022-08-12T19:57:04.589Z,99815.88
2022-08-12T20:02:11.656Z,99817.97
2022-08-12T20:07:23.757Z,99813.91
2022-08-12T20:12:34.585Z,99819.56
2022-08-12T20:17:51.106Z,99813.81
2022-08-12T20:22:57.548Z,99817.53
2022-08-12T20:28:04.006Z,99811.56
2022-08-12T20:33:18.688Z,99825.81
2022-08-12T20:38:26.725Z,99827.66
2022-08-12T20:43:33.778Z,99819.19
2022-08-12T20:48:37.901Z,99826.22
2022-08-12T20:53:53.956Z,99821.03
2022-08-12T20:59:06.743Z,99825.66
2022-08-12T21:04:28.491Z,99800.66
2022-08-12T21:09:40.571Z,99820.69
2022-08-12T21:14:53.234Z,99820.06
2022-08-12T21:20:05.798Z,99826.28
2022-08-12T21:25:17.575Z,99826.53
2022-08-12T21:30:21.362Z,99820.59
2022-08-12T21:35:30.766Z,99824.28
2022-08-12T21:40:52.136Z,99832.31
2022-08-12T21:46:01.297Z,99827.25
2022-08-12T21:51:23.451Z,99832.72
2022-08-12T21:56:34.915Z,99839.06
2022-08-12T22:01:48.561Z,99841.03
2022-08-12T22:06:54.542Z,99842.25
2022-08-12T22:12:20.374Z,99835.31
2022-08-12T22:17:49.564Z,99843.34
2022-08-12T22:22:56.864Z,99838.25
2022-08-12T22:28:24.759Z,99844.47
2022-08-12T22:33:28.272Z,99834.34
2022-08-12T22:38:32.442Z,99850.00
2022-08-12T22:44:00.686Z,99854.44
2022-08-12T22:49:06.577Z,99859.84
2022-08-12T22:54:35.564Z,99856.50
2022-08-12T22:59:55.769Z,99863.56
2022-08-12T23:05:00.051Z,99855.97
2022-08-12T23:10:04.132Z,99861.31
2022-08-12T23:15:10.351Z,99859.69
2022-08-12T23:20:15.167Z,99859.06
2022-08-12T23:25:21.143Z,99842.66
2022-08-12T23:30:32.049Z,99858.22
2022-08-12T23:35:45.981Z,99869.66
2022-08-12T23:41:02.677Z,99863.63
2022-08-12T23:46:10.086Z,99868.94
2022-08-12T23:51:23.040Z,99871.59
2022-08-12T23:56:28.500Z,99869.00
